Time;durP1;ratioP1;P1;durP2;ratioP2;P2;SDS_P1;SDS_P2;PMS_P1;PMS_P2;Temp;Humidity;BMP_temperature;BMP_pressure;BME280_temperature;BME280_humidity;BME280_pressure;Samples;Min_cycle;Max_cycle;Signal;HPM_P1;HPM_P2
2023/08/10 00:01:48;;;;;;;17.85;8.70;;;;;;;20.49;70.90;100254.65;1818967;79;21286;-77
2023/08/10 00:04:55;;;;;;;22.75;9.05;;;;;;;20.40;71.29;100261.08;1818501;79;21286;-77
2023/08/10 00:08:00;;;;;;;18.15;8.48;;;;;;;20.52;70.99;100256.95;1819085;79;21296;-77
2023/08/10 00:11:07;;;;;;;17.70;7.83;;;;;;;20.58;70.82;100262.08;1817624;79;21302;-77
2023/08/10 00:14:14;;;;;;;17.50;8.90;;;;;;;20.76;69.93;100248.03;1817571;79;21298;-77
2023/08/10 00:17:21;;;;;;;16.70;7.87;;;;;;;20.74;69.99;100253.52;1819145;79;21862;-77
2023/08/10 00:20:27;;;;;;;15.88;7.25;;;;;;;20.85;69.43;100256.30;1817593;79;21325;-78
2023/08/10 00:23:34;;;;;;;12.88;6.97;;;;;;;20.77;69.63;100253.05;1817696;79;21279;-77
2023/08/10 00:26:40;;;;;;;11.25;6.87;;;;;;;20.64;70.28;100257.77;1819160;79;21310;-77
2023/08/10 00:29:47;;;;;;;16.97;6.10;;;;;;;20.71;69.75;100256.27;1819049;79;21910;-77
2023/08/10 00:32:53;;;;;;;11.68;5.62;;;;;;;20.93;69.45;100255.05;1819059;79;21295;-77
2023/08/10 00:36:01;;;;;;;12.40;5.83;;;;;;;20.87;69.38;100258.27;1817996;79;21334;-77
2023/08/10 00:39:07;;;;;;;10.90;6.70;;;;;;;20.95;68.91;100256.21;1813618;79;21322;-77
2023/08/10 00:42:14;;;;;;;14.63;6.83;;;;;;;20.77;69.33;100267.78;1811987;79;21861;-77
2023/08/10 00:45:21;;;;;;;13.25;6.30;;;;;;;20.84;69.16;100268.52;1811825;79;21311;-77
2023/08/10 00:48:26;;;;;;;11.90;5.70;;;;;;;20.54;70.22;100273.38;1813430;79;21310;-76
2023/08/10 00:51:32;;;;;;;15.25;6.40;;;;;;;20.59;70.24;100275.72;1813267;79;21893;-78
2023/08/10 00:54:37;;;;;;;11.60;5.58;;;;;;;20.64;69.91;100270.27;1813299;79;21322;-76
2023/08/10 00:57:43;;;;;;;14.60;5.75;;;;;;;20.62;70.11;100267.45;1813380;79;21869;-76
2023/08/10 01:00:49;;;;;;;8.50;5.00;;;;;;;20.91;69.23;100268.36;1813313;79;21858;-77
2023/08/10 01:03:55;;;;;;;10.30;5.00;;;;;;;20.74;69.52;100263.25;1813960;79;21874;-77
2023/08/10 01:07:13;;;;;;;8.90;5.05;;;;;;;20.52;70.28;100272.23;1811736;79;21331;-77
2023/08/10 01:10:44;;;;;;;12.73;4.65;;;;;;;20.59;70.28;100270.70;1813392;79;21303;-77
2023/08/10 01:14:01;;;;;;;10.95;4.37;;;;;;;20.63;70.21;100273.30;1813347;79;21323;-77
2023/08/10 01:17:08;;;;;;;7.28;3.67;;;;;;;20.42;71.00;100278.38;1811885;79;21892;-77
2023/08/10 01:20:14;;;;;;;9.18;4.40;;;;;;;20.59;70.48;100282.66;1813395;79;21645;-76
2023/08/10 01:23:32;;;;;;;9.08;4.53;;;;;;;20.52;70.59;100278.34;1812493;79;21764;-78
2023/08/10 01:26:39;;;;;;;7.50;4.08;;;;;;;20.56;70.41;100274.83;1812335;79;21295;-79
2023/08/10 01:29:45;;;;;;;5.67;3.90;;;;;;;20.63;70.14;100272.75;1813266;79;21864;-79
2023/08/10 01:32:52;;;;;;;11.57;4.62;;;;;;;20.50;70.80;100275.78;1813326;79;21315;-76
2023/08/10 01:35:59;;;;;;;7.95;3.85;;;;;;;20.58;70.42;100276.81;1811792;79;21929;-78
2023/08/10 01:39:05;;;;;;;14.13;4.33;;;;;;;20.86;69.72;100273.27;1812255;79;21327;-77
2023/08/10 01:42:11;;;;;;;6.00;3.95;;;;;;;20.85;69.18;100274.91;1819025;79;21853;-77
2023/08/10 01:45:18;;;;;;;6.25;3.12;;;;;;;20.67;69.44;100269.80;1819364;79;21861;-77
2023/08/10 01:48:40;;;;;;;5.30;3.00;;;;;;;20.60;70.16;100269.61;1819205;79;21302;-77
2023/08/10 01:51:47;;;;;;;5.87;3.08;;;;;;;20.47;70.70;100275.41;1819087;79;21881;-78
2023/08/10 01:54:54;;;;;;;5.35;3.17;;;;;;;20.67;70.11;100271.19;1819129;79;21323;-77
2023/08/10 01:58:00;;;;;;;5.53;3.22;;;;;;;20.86;69.02;100272.42;1819173;79;21342;-77
2023/08/10 02:01:06;;;;;;;4.75;2.65;;;;;;;20.92;68.78;100272.83;1819122;79;21314;-78
2023/08/10 02:04:12;;;;;;;4.87;3.17;;;;;;;21.12;68.22;100269.08;1819067;79;21298;-77
2023/08/10 02:07:18;;;;;;;6.28;3.08;;;;;;;20.91;68.84;100273.92;1818095;79;21865;-78
2023/08/10 02:10:24;;;;;;;4.53;2.92;;;;;;;20.29;70.39;100273.59;1819188;79;21286;-77
2023/08/10 02:13:31;;;;;;;6.55;3.12;;;;;;;20.22;71.00;100278.41;1819000;79;21200;-77
2023/08/10 02:16:36;;;;;;;6.37;2.92;;;;;;;20.41;70.56;100275.27;1818682;79;21338;-78
2023/08/10 02:19:42;;;;;;;4.12;2.30;;;;;;;20.57;69.96;100279.30;1819048;79;21298;-77
2023/08/10 02:22:56;;;;;;;10.43;3.52;;;;;;;20.52;69.94;100284.73;1818991;79;21334;-77
2023/08/10 02:26:01;;;;;;;10.55;2.70;;;;;;;20.68;69.28;100281.20;1819494;79;21295;-77
2023/08/10 02:29:08;;;;;;;4.35;2.98;;;;;;;20.42;70.37;100275.59;1818999;79;21303;-78
2023/08/10 02:32:16;;;;;;;5.72;3.05;;;;;;;20.59;69.97;100269.31;1817551;79;21222;-77
2023/08/10 02:35:22;;;;;;;6.47;3.05;;;;;;;20.43;70.48;100272.27;1817427;79;21283;-77
2023/08/10 02:38:27;;;;;;;6.15;3.35;;;;;;;20.35;70.74;100263.73;1818246;79;21251;-77
2023/08/10 02:41:34;;;;;;;8.35;2.77;;;;;;;20.37;70.72;100264.88;1812725;79;21263;-77
2023/08/10 02:44:41;;;;;;;8.80;2.90;;;;;;;20.47;70.81;100260.13;1813343;79;21291;-77
2023/08/10 02:47:48;;;;;;;5.62;3.22;;;;;;;20.72;70.23;100250.16;1812498;79;21747;-77
2023/08/10 02:50:53;;;;;;;4.97;2.98;;;;;;;20.66;70.20;100250.59;1811856;79;21296;-77
2023/08/10 02:54:00;;;;;;;6.72;2.72;;;;;;;20.85;70.07;100252.12;1811916;79;21197;-77
2023/08/10 02:57:06;;;;;;;4.65;2.70;;;;;;;21.30;68.48;100253.30;1812853;79;21323;-77
2023/08/10 03:00:14;;;;;;;4.50;2.77;;;;;;;21.56;67.39;100254.13;1813255;79;21303;-77
2023/08/10 03:03:22;;;;;;;6.10;2.50;;;;;;;21.55;67.31;100256.62;1811850;79;22486;-77
2023/08/10 03:06:29;;;;;;;5.85;2.72;;;;;;;21.95;65.86;100261.20;1813156;79;21343;-78
2023/08/10 03:09:37;;;;;;;6.45;2.75;;;;;;;22.31;64.69;100259.89;1812499;79;21898;-78
2023/08/10 03:12:45;;;;;;;3.95;2.92;;;;;;;22.17;65.49;100259.39;1812214;79;21140;-77
2023/08/10 03:15:51;;;;;;;13.32;3.27;;;;;;;22.34;64.65;100245.98;1813783;79;21295;-78
2023/08/10 03:18:56;;;;;;;6.30;2.65;;;;;;;22.63;63.26;100239.19;1811767;79;21639;-78
2023/08/10 03:22:03;;;;;;;7.35;2.58;;;;;;;22.39;63.52;100238.53;1811722;79;21319;-77
2023/08/10 03:25:09;;;;;;;11.50;2.80;;;;;;;22.33;63.77;100238.17;1812504;79;21320;-77
2023/08/10 03:28:16;;;;;;;7.25;2.40;;;;;;;22.20;64.27;100237.97;1812890;79;21323;-78
2023/08/10 03:31:23;;;;;;;4.47;2.42;;;;;;;22.17;64.27;100230.14;1812270;79;21889;-77
2023/08/10 03:34:30;;;;;;;9.18;2.83;;;;;;;22.42;63.22;100231.06;1811715;79;21318;-78
2023/08/10 03:37:37;;;;;;;4.95;2.95;;;;;;;22.79;62.05;100222.66;1812673;79;21311;-76
2023/08/10 03:40:44;;;;;;;5.33;3.05;;;;;;;22.92;61.48;100220.36;1812656;79;21992;-76
2023/08/10 03:43:51;;;;;;;4.58;2.83;;;;;;;23.05;61.30;100227.46;1813391;79;21854;-77
2023/08/10 03:46:58;;;;;;;4.95;2.58;;;;;;;23.19;61.19;100230.14;1813298;79;22292;-77
2023/08/10 03:50:05;;;;;;;6.00;3.08;;;;;;;23.50;60.28;100223.51;1813358;79;21303;-76
2023/08/10 03:53:11;;;;;;;5.72;2.92;;;;;;;23.49;60.13;100221.83;1813223;79;21299;-77
2023/08/10 03:56:18;;;;;;;4.78;2.85;;;;;;;23.65;59.53;100222.84;1812050;79;21310;-77
2023/08/10 03:59:25;;;;;;;8.30;2.77;;;;;;;23.75;58.86;100227.67;1811922;79;21342;-77
2023/08/10 04:02:32;;;;;;;5.50;2.35;;;;;;;23.89;58.56;100233.95;1813516;79;21299;-77
2023/08/10 04:05:39;;;;;;;8.98;3.17;;;;;;;24.14;57.47;100218.52;1813420;79;21307;-77
2023/08/10 04:08:46;;;;;;;6.35;2.60;;;;;;;24.42;56.51;100232.72;1812403;79;21984;-77
2023/08/10 04:11:52;;;;;;;6.42;3.00;;;;;;;24.33;56.33;100232.91;1813272;79;21299;-77
2023/08/10 04:14:58;;;;;;;10.65;2.80;;;;;;;24.39;56.32;100229.06;1813477;79;21317;-76
2023/08/10 04:18:04;;;;;;;6.60;2.55;;;;;;;24.50;55.77;100227.16;1812766;79;21339;-78
2023/08/10 04:21:11;;;;;;;6.83;2.62;;;;;;;24.87;54.76;100243.86;1813458;79;21865;-77
2023/08/10 04:24:18;;;;;;;6.05;2.55;;;;;;;24.51;55.66;100228.28;1811657;79;21302;-76
2023/08/10 04:27:25;;;;;;;6.15;2.55;;;;;;;25.35;52.90;100236.23;1813312;79;21291;-77
2023/08/10 04:30:32;;;;;;;6.40;2.85;;;;;;;24.81;54.33;100239.37;1813376;79;21318;-77
2023/08/10 04:33:39;;;;;;;3.20;2.42;;;;;;;24.99;53.73;100237.50;1812925;79;21304;-77
2023/08/10 04:36:45;;;;;;;7.37;3.08;;;;;;;25.12;52.67;100236.16;1811625;79;21330;-77
2023/08/10 04:39:52;;;;;;;6.10;2.47;;;;;;;25.15;52.69;100229.45;1810745;79;21953;-78
2023/08/10 04:42:57;;;;;;;9.58;3.52;;;;;;;25.12;52.62;100232.80;1810877;79;21315;-77
2023/08/10 04:46:03;;;;;;;5.33;2.40;;;;;;;25.14;52.73;100221.34;1812640;79;21216;-78
2023/08/10 04:49:10;;;;;;;3.83;2.70;;;;;;;25.33;51.77;100223.08;1812683;79;21296;-78
2023/08/10 04:52:16;;;;;;;5.58;2.87;;;;;;;25.61;51.48;100214.17;1813296;79;21873;-77
2023/08/10 04:55:22;;;;;;;5.20;2.37;;;;;;;25.76;50.69;100218.98;1813201;79;21290;-76
2023/08/10 04:58:28;;;;;;;10.88;2.67;;;;;;;25.63;51.01;100227.33;1813375;79;21330;-76
2023/08/10 05:01:27;;;;;;;3.25;2.10;;;;;;;26.14;50.14;100222.34;1813279;79;21300;-76
2023/08/10 05:04:34;;;;;;;14.25;2.00;;;;;;;26.32;49.06;100218.11;1813317;79;21291;-76
2023/08/10 05:07:41;;;;;;;5.00;2.52;;;;;;;25.92;49.64;100214.20;1805281;79;21283;-77
2023/08/10 05:10:52;;;;;;;8.63;2.08;;;;;;;25.88;49.60;100203.31;1775667;79;21355;-77
2023/08/10 05:13:58;;;;;;;3.05;2.25;;;;;;;26.08;49.24;100199.09;1767531;81;21866;-77
2023/08/10 05:17:04;;;;;;;4.50;2.15;;;;;;;26.17;48.71;100198.80;1767493;81;21311;-77
2023/08/10 05:20:12;;;;;;;5.62;2.00;;;;;;;26.12;48.50;100208.61;1767310;79;21331;-77
2023/08/10 05:23:17;;;;;;;9.55;2.35;;;;;;;26.47;48.04;100204.09;1805492;79;21889;-77
2023/08/10 05:26:24;;;;;;;3.55;2.30;;;;;;;26.38;47.88;100205.76;1805119;79;21822;-77
2023/08/10 05:29:29;;;;;;;3.35;2.00;;;;;;;26.87;47.17;100177.88;1805388;79;21881;-79
2023/08/10 05:32:34;;;;;;;2.85;1.87;;;;;;;27.00;46.90;100172.17;1777510;79;21349;-77
2023/08/10 05:35:40;;;;;;;7.70;2.50;;;;;;;27.11;46.36;100181.44;1806094;78;21307;-78
2023/08/10 05:38:47;;;;;;;5.67;2.02;;;;;;;26.54;47.71;100173.80;1782538;79;21298;-77
2023/08/10 05:41:53;;;;;;;3.47;1.92;;;;;;;27.15;47.83;100161.48;1794548;79;21363;-77
2023/08/10 05:44:59;;;;;;;8.48;2.25;;;;;;;27.60;45.57;100157.50;1714021;81;21344;-77
2023/08/10 05:48:06;;;;;;;6.92;2.10;;;;;;;26.17;48.76;100159.55;1686546;83;22753;-77
2023/08/10 05:51:11;;;;;;;3.27;2.08;;;;;;;26.22;48.29;100148.89;1712522;82;21327;-78
2023/08/10 05:54:17;;;;;;;5.87;2.00;;;;;;;26.22;48.42;100143.28;1705839;82;21946;-77
2023/08/10 05:57:23;;;;;;;6.60;2.33;;;;;;;26.34;48.54;100135.95;1710458;82;21338;-78
2023/08/10 06:00:32;;;;;;;5.45;2.10;;;;;;;26.62;48.32;100133.91;1705293;83;21368;-78
2023/08/10 06:03:31;;;;;;;;;;;;;;;26.80;47.77;100127.39;1718984;82;21944;-77
2023/08/10 06:06:39;;;;;;;18.73;2.72;;;;;;;27.12;46.67;100132.58;1714508;82;21134;-77
2023/08/10 06:09:46;;;;;;;4.80;2.12;;;;;;;27.24;46.22;100131.09;1706252;82;21319;-77
2023/08/10 06:12:52;;;;;;;10.05;2.30;;;;;;;26.81;47.33;100144.49;1709745;82;21165;-77
2023/08/10 06:15:58;;;;;;;5.75;2.10;;;;;;;26.78;47.48;100141.72;1709365;82;21897;-78
2023/08/10 06:19:06;;;;;;;5.75;2.27;;;;;;;26.89;47.88;100142.50;1701875;82;21235;-78
2023/08/10 06:22:13;;;;;;;3.35;1.90;;;;;;;27.29;46.34;100144.80;1700034;82;21201;-78
2023/08/10 06:25:19;;;;;;;11.68;2.40;;;;;;;27.45;45.99;100136.55;1703093;82;21333;-78
2023/08/10 06:28:26;;;;;;;14.75;2.42;;;;;;;27.64;46.40;100138.92;1703236;82;21362;-78
2023/08/10 06:31:32;;;;;;;6.22;2.37;;;;;;;27.53;46.75;100144.36;1696598;82;21354;-78
2023/08/10 06:34:38;;;;;;;7.17;2.20;;;;;;;27.42;46.78;100141.34;1703851;82;21323;-78
2023/08/10 06:37:45;;;;;;;2.90;2.10;;;;;;;27.55;46.46;100150.52;1710713;82;21339;-78
2023/08/10 06:40:51;;;;;;;6.40;2.65;;;;;;;27.92;46.51;100141.52;1707122;82;21315;-78
2023/08/10 06:43:56;;;;;;;5.78;2.42;;;;;;;27.43;46.63;100131.78;1705434;82;22932;-78
2023/08/10 06:47:03;;;;;;;5.65;2.50;;;;;;;27.61;46.27;100149.91;1741711;80;22621;-78
2023/08/10 06:50:09;;;;;;;6.53;2.33;;;;;;;27.33;47.04;100125.67;1745665;80;21326;-77
2023/08/10 06:53:15;;;;;;;3.70;2.33;;;;;;;27.38;46.42;100138.27;1744766;80;21350;-78
2023/08/10 06:56:21;;;;;;;6.37;2.65;;;;;;;26.99;48.00;100148.88;1744942;80;21284;-78
2023/08/10 06:59:26;;;;;;;3.62;2.30;;;;;;;27.05;47.59;100152.50;1740601;81;21849;-79
2023/08/10 07:02:33;;;;;;;6.05;2.62;;;;;;;26.95;48.22;100155.36;1731847;81;21347;-78
2023/08/10 07:05:41;;;;;;;5.00;2.55;;;;;;;27.39;47.72;100158.80;1739157;80;21882;-79
2023/08/10 07:08:52;;;;;;;9.28;2.40;;;;;;;27.34;47.47;100159.67;1713855;82;21188;-79
2023/08/10 07:11:56;;;;;;;6.85;2.37;;;;;;;27.13;48.71;100160.34;1761776;79;21849;-79
2023/08/10 07:15:02;;;;;;;4.78;2.47;;;;;;;27.14;48.11;100167.63;1731990;80;21336;-79
2023/08/10 07:18:09;;;;;;;5.53;2.12;;;;;;;27.42;47.92;100161.00;1768609;80;21929;-79
2023/08/10 07:21:15;;;;;;;5.12;2.15;;;;;;;27.43;47.75;100163.54;1770211;80;22430;-79
2023/08/10 07:24:22;;;;;;;4.00;2.35;;;;;;;27.64;47.91;100164.20;1773988;80;21299;-79
2023/08/10 07:27:22;;;;;;;4.42;2.47;;;;;;;27.69;46.55;100161.92;1773887;80;21311;-78
2023/08/10 07:30:29;;;;;;;9.08;2.45;;;;;;;27.81;46.81;100154.53;1727901;80;21318;-78
2023/08/10 07:33:34;;;;;;;5.85;2.80;;;;;;;27.89;46.57;100163.17;1737426;80;21339;-78
2023/08/10 07:36:40;;;;;;;8.10;2.60;;;;;;;28.26;47.08;100148.47;1733552;80;21287;-79
2023/08/10 07:39:47;;;;;;;11.08;2.77;;;;;;;28.48;45.92;100152.20;1736497;81;21306;-78
2023/08/10 07:42:53;;;;;;;6.37;2.27;;;;;;;28.58;46.50;100166.72;1766326;80;21314;-78
2023/08/10 07:45:59;;;;;;;3.17;2.08;;;;;;;28.99;46.26;100157.22;1763793;80;21319;-78
2023/08/10 07:49:05;;;;;;;2.90;2.15;;;;;;;29.25;45.66;100145.00;1757080;81;21284;-79
2023/08/10 07:52:10;;;;;;;4.60;2.30;;;;;;;29.20;45.25;100135.23;1755794;81;22181;-78
2023/08/10 07:55:16;;;;;;;8.55;2.35;;;;;;;28.84;45.80;100136.83;1759461;81;21339;-78
2023/08/10 07:58:21;;;;;;;7.22;2.45;;;;;;;28.80;46.49;100131.00;1754505;81;22178;-78
2023/08/10 08:01:27;;;;;;;4.67;2.58;;;;;;;28.85;46.29;100138.53;1758713;81;21298;-79
2023/08/10 08:04:33;;;;;;;12.55;2.60;;;;;;;29.00;46.38;100133.55;1750920;81;21350;-79
2023/08/10 08:07:34;;;;;;;5.62;2.92;;;;;;;29.35;46.02;100140.36;1757279;81;21327;-79
2023/08/10 08:10:40;;;;;;;5.83;2.50;;;;;;;29.46;45.15;100136.26;1760294;81;22406;-79
2023/08/10 08:13:45;;;;;;;4.58;2.67;;;;;;;29.61;44.88;100143.66;1749486;81;22214;-79
2023/08/10 08:16:51;;;;;;;7.20;3.12;;;;;;;29.70;45.58;100130.53;1749934;81;21324;-79
2023/08/10 08:19:58;;;;;;;9.48;2.80;;;;;;;29.53;44.25;100136.69;1760272;81;21287;-79
2023/08/10 08:23:04;;;;;;;5.45;2.83;;;;;;;29.43;45.13;100131.22;1757428;81;21318;-77
2023/08/10 08:26:10;;;;;;;6.17;2.62;;;;;;;29.60;44.67;100126.48;1743695;81;21315;-78
2023/08/10 08:29:15;;;;;;;8.15;2.62;;;;;;;29.63;43.80;100100.48;1786765;79;21900;-77
2023/08/10 08:32:22;;;;;;;9.68;2.47;;;;;;;29.26;44.82;100093.16;1787579;78;21321;-78
2023/08/10 08:35:29;;;;;;;7.95;3.08;;;;;;;29.02;45.73;100085.38;1781891;78;21290;-78
2023/08/10 08:38:29;;;;;;;10.23;3.40;;;;;;;28.83;46.04;100063.39;1790288;78;22464;-77
2023/08/10 08:41:38;;;;;;;12.63;3.80;;;;;;;28.73;46.55;100045.52;1792143;78;22451;-77
2023/08/10 08:44:45;;;;;;;9.20;3.25;;;;;;;28.72;46.92;100045.83;1779957;78;21327;-77
2023/08/10 08:47:54;;;;;;;15.90;3.40;;;;;;;28.83;46.76;100047.91;1795158;78;21334;-77
2023/08/10 08:51:00;;;;;;;5.33;2.95;;;;;;;28.95;46.83;100056.78;1795161;78;21333;-77
2023/08/10 08:54:06;;;;;;;5.15;3.05;;;;;;;29.06;46.50;100056.88;1790959;78;21287;-78
2023/08/10 08:57:23;;;;;;;10.08;3.02;;;;;;;29.26;45.80;100055.71;1801884;79;21196;-77
2023/08/10 09:00:30;;;;;;;10.28;3.10;;;;;;;29.67;45.70;100043.20;1741693;81;21299;-79
2023/08/10 09:03:36;;;;;;;6.17;2.65;;;;;;;29.90;45.09;100058.27;1761414;79;21359;-78
2023/08/10 09:06:42;;;;;;;7.65;3.58;;;;;;;29.87;45.17;100072.15;1718386;82;21323;-79
2023/08/10 09:09:48;;;;;;;10.10;3.83;;;;;;;30.15;44.48;100078.11;1804759;78;21319;-78
2023/08/10 09:12:54;;;;;;;5.10;2.90;;;;;;;30.36;44.68;100101.70;1801089;77;21125;-78
2023/08/10 09:16:17;;;;;;;4.90;2.83;;;;;;;30.35;45.54;100099.45;1781272;79;22665;-78
2023/08/10 09:19:24;;;;;;;4.87;3.05;;;;;;;30.41;44.17;100115.70;1794890;78;21922;-79
2023/08/10 09:22:38;;;;;;;6.47;3.42;;;;;;;30.52;43.45;100114.33;1803760;78;21338;-79
2023/08/10 09:25:46;;;;;;;15.40;3.30;;;;;;;30.54;43.02;100112.05;1724717;81;22656;-78
2023/08/10 09:28:55;;;;;;;4.40;2.90;;;;;;;30.55;43.51;100106.66;1718116;81;21316;-78
2023/08/10 09:32:01;;;;;;;9.65;3.40;;;;;;;30.58;43.28;100110.24;1738844;82;21314;-79
2023/08/10 09:35:07;;;;;;;4.92;3.27;;;;;;;30.51;44.40;100104.20;1700440;82;21924;-78
2023/08/10 09:38:13;;;;;;;7.83;2.80;;;;;;;30.78;43.35;100095.73;1746933;81;21294;-77
2023/08/10 09:41:21;;;;;;;5.58;3.02;;;;;;;30.27;44.79;100097.36;1749330;82;21240;-77
2023/08/10 09:44:26;;;;;;;12.30;3.77;;;;;;;30.62;44.75;100095.77;1748771;81;22354;-78
2023/08/10 09:47:32;;;;;;;7.92;3.58;;;;;;;30.52;44.28;100088.93;1745902;81;21327;-77
2023/08/10 09:50:40;;;;;;;7.58;3.40;;;;;;;30.52;44.28;100088.93;1736668;81;21288;-77
2023/08/10 09:53:46;;;;;;;7.47;3.50;;;;;;;30.91;44.00;100078.52;1689553;84;21350;-76
2023/08/10 09:56:53;;;;;;;8.33;3.30;;;;;;;30.77;43.59;100085.61;1713597;82;21300;-76
2023/08/10 10:00:00;;;;;;;13.72;3.85;;;;;;;30.77;43.59;100085.61;1749153;80;22496;-77
2023/08/10 10:03:06;;;;;;;8.83;3.62;;;;;;;30.79;43.69;100070.58;1753151;81;21320;-77
2023/08/10 10:06:13;;;;;;;4.87;3.15;;;;;;;30.38;45.10;100076.81;1728934;82;21290;-78
2023/08/10 10:09:19;;;;;;;11.70;4.40;;;;;;;30.63;44.42;100074.88;1748839;81;21280;-77
2023/08/10 10:12:25;;;;;;;5.67;4.00;;;;;;;30.78;43.81;100087.84;1768810;81;21310;-77
2023/08/10 10:15:34;;;;;;;8.13;3.80;;;;;;;30.80;43.90;100085.53;1805620;78;21300;-78
2023/08/10 10:18:40;;;;;;;12.55;3.40;;;;;;;30.98;44.03;100080.89;1806709;78;21280;-77
2023/08/10 10:21:45;;;;;;;9.43;3.25;;;;;;;31.17;43.83;100091.45;1791616;78;21644;-77
2023/08/10 10:24:51;;;;;;;8.75;3.17;;;;;;;31.08;43.04;100082.06;1798020;78;21315;-77
2023/08/10 10:27:57;;;;;;;5.30;3.37;;;;;;;31.29;43.98;100071.16;1805297;79;21328;-77
2023/08/10 10:31:14;;;;;;;4.45;3.30;;;;;;;31.29;43.63;100033.84;1804147;78;21283;-78
2023/08/10 10:34:21;;;;;;;10.53;4.05;;;;;;;31.22;44.10;100017.88;1726967;81;21299;-77
2023/08/10 10:37:37;;;;;;;6.90;3.17;;;;;;;30.94;43.29;100012.09;1718425;82;21367;-78
2023/08/10 10:40:45;;;;;;;9.30;3.40;;;;;;;30.77;43.81;100013.62;1737870;81;21188;-78
2023/08/10 10:43:51;;;;;;;8.08;3.25;;;;;;;31.09;43.68;100014.52;1738287;81;21370;-77
2023/08/10 10:46:57;;;;;;;7.83;3.92;;;;;;;30.84;44.45;100007.52;1716078;81;21347;-78
2023/08/10 10:50:02;;;;;;;8.43;3.65;;;;;;;31.12;44.18;100013.06;1720777;81;21380;-78
2023/08/10 10:53:14;;;;;;;9.53;4.45;;;;;;;31.12;44.18;100013.06;1748209;81;22149;-77
2023/08/10 10:56:19;;;;;;;11.25;5.45;;;;;;;31.02;44.37;99998.63;1723077;81;21312;-78
2023/08/10 10:59:26;;;;;;;13.48;6.08;;;;;;;31.05;44.46;99986.11;1761564;81;21866;-78
2023/08/10 11:02:35;;;;;;;13.55;6.33;;;;;;;30.58;44.92;100004.98;1763436;80;21339;-78
2023/08/10 11:05:41;;;;;;;13.65;5.97;;;;;;;30.58;44.92;100004.98;1749222;81;22587;-77
2023/08/10 11:08:47;;;;;;;11.30;6.20;;;;;;;30.57;45.53;100004.16;1725442;82;21320;-77
2023/08/10 11:11:56;;;;;;;9.98;5.72;;;;;;;30.75;44.61;99996.14;1761283;80;21962;-77
2023/08/10 11:15:04;;;;;;;12.23;5.97;;;;;;;30.75;44.61;99996.14;1751294;81;21938;-77
2023/08/10 11:18:12;;;;;;;9.58;5.22;;;;;;;31.14;44.42;99997.45;1730190;82;21371;-77
2023/08/10 11:21:18;;;;;;;12.43;5.15;;;;;;;31.14;44.42;99997.45;1724769;81;21782;-78
2023/08/10 11:24:23;;;;;;;9.70;5.40;;;;;;;31.22;44.86;100005.16;1754049;81;21359;-78
2023/08/10 11:27:29;;;;;;;11.50;4.97;;;;;;;31.28;44.01;100008.13;1721080;81;21302;-78
2023/08/10 11:30:35;;;;;;;10.68;5.25;;;;;;;31.39;45.00;100000.25;1747580;80;21303;-77
2023/08/10 11:33:42;;;;;;;14.60;5.45;;;;;;;31.51;44.82;100002.47;1753508;81;21292;-77
2023/08/10 11:36:49;;;;;;;9.23;5.00;;;;;;;31.68;44.27;99989.85;1720732;82;21476;-78
2023/08/10 11:39:54;;;;;;;11.93;4.72;;;;;;;31.61;44.49;99988.64;1726056;81;21322;-77
2023/08/10 11:43:15;;;;;;;9.43;4.87;;;;;;;31.54;43.96;99996.17;1737831;81;21331;-76
2023/08/10 11:46:22;;;;;;;7.75;4.83;;;;;;;31.62;44.32;99996.81;1726671;81;21567;-76
2023/08/10 11:49:31;;;;;;;11.97;4.97;;;;;;;31.38;44.38;99994.90;1751687;81;21351;-76
2023/08/10 11:52:37;;;;;;;13.28;4.97;;;;;;;31.57;44.89;100001.16;1742770;81;21313;-77
2023/08/10 11:55:59;;;;;;;11.55;4.83;;;;;;;31.72;44.42;100002.19;1723614;82;21327;-76
2023/08/10 11:59:05;;;;;;;13.90;4.90;;;;;;;31.93;43.75;100015.77;1723889;82;21311;-76
2023/08/10 12:02:11;;;;;;;8.38;4.58;;;;;;;31.77;43.90;100006.28;1756517;80;21894;-77
2023/08/10 12:05:17;;;;;;;9.45;4.87;;;;;;;31.95;43.77;100003.57;1707007;83;21343;-77
2023/08/10 12:08:38;;;;;;;9.63;5.00;;;;;;;32.00;44.08;100008.49;1751489;82;21334;-76
2023/08/10 12:11:45;;;;;;;11.60;4.85;;;;;;;32.01;43.47;100007.33;1800817;78;21339;-77
2023/08/10 12:14:53;;;;;;;10.80;5.30;;;;;;;31.62;44.05;99986.06;1795415;78;21279;-76
2023/08/10 12:18:03;;;;;;;14.00;4.33;;;;;;;31.69;44.37;99969.48;1785527;78;21338;-77
2023/08/10 12:21:10;;;;;;;14.18;5.60;;;;;;;31.69;44.37;99969.48;1732236;81;21304;-77
2023/08/10 12:24:16;;;;;;;12.20;4.75;;;;;;;31.47;45.58;99968.36;1763584;81;21296;-76
2023/08/10 12:27:21;;;;;;;9.73;5.12;;;;;;;31.47;45.58;99968.36;1762430;81;21311;-76
2023/08/10 12:30:28;;;;;;;15.98;5.97;;;;;;;31.27;46.17;99973.16;1752014;81;21355;-77
2023/08/10 12:33:33;;;;;;;9.78;5.95;;;;;;;31.30;46.32;99971.94;1753167;81;21347;-77
2023/08/10 12:36:39;;;;;;;11.08;6.03;;;;;;;31.05;47.22;99983.29;1755986;81;21351;-77
2023/08/10 12:39:45;;;;;;;12.80;5.65;;;;;;;30.76;48.16;99987.93;1736613;81;21318;-77
2023/08/10 12:42:55;;;;;;;12.78;6.92;;;;;;;30.78;48.68;99985.64;1737220;81;21291;-77
2023/08/10 12:46:02;;;;;;;9.63;5.37;;;;;;;30.78;48.68;99985.64;1735890;82;21346;-77
2023/08/10 12:49:07;;;;;;;14.05;6.08;;;;;;;30.29;49.71;99985.86;1735435;82;21335;-77
2023/08/10 12:52:13;;;;;;;7.55;5.62;;;;;;;30.15;50.69;99985.05;1707208;82;21959;-77
2023/08/10 12:55:21;;;;;;;14.38;5.37;;;;;;;30.38;50.00;99986.54;1736555;82;21319;-77
2023/08/10 12:58:30;;;;;;;15.43;5.95;;;;;;;30.48;49.66;99979.25;1735485;82;21543;-76
2023/08/10 13:01:37;;;;;;;9.53;5.28;;;;;;;30.61;49.35;99974.73;1734995;82;21328;-77
2023/08/10 13:04:43;;;;;;;9.93;5.25;;;;;;;30.31;50.30;99963.00;1735985;82;21736;-77
2023/08/10 13:07:51;;;;;;;13.50;5.17;;;;;;;30.24;50.63;99972.45;1737213;82;21333;-76
2023/08/10 13:10:57;;;;;;;11.20;5.55;;;;;;;30.08;51.31;99974.75;1738243;82;21354;-76
2023/08/10 13:14:02;;;;;;;15.25;5.70;;;;;;;30.14;51.50;99960.81;1738583;82;21322;-76
2023/08/10 13:17:08;;;;;;;13.43;5.85;;;;;;;30.17;52.30;99958.79;1737887;82;21341;-76
2023/08/10 13:20:17;;;;;;;10.65;5.78;;;;;;;30.07;53.14;99952.52;1737704;82;21397;-76
2023/08/10 13:23:24;;;;;;;14.55;6.87;;;;;;;29.90;54.32;99944.67;1738714;82;21312;-76
2023/08/10 13:26:30;;;;;;;9.43;5.55;;;;;;;29.93;54.39;99944.89;1738374;82;21377;-76
2023/08/10 13:29:36;;;;;;;10.88;5.97;;;;;;;29.77;55.76;99937.30;1738897;82;21317;-76
2023/08/10 13:32:41;;;;;;;11.50;6.22;;;;;;;29.63;55.94;99944.92;1738974;82;21334;-76
2023/08/10 13:35:47;;;;;;;11.38;5.80;;;;;;;29.65;56.05;99965.19;1737679;82;21344;-76
2023/08/10 13:38:47;;;;;;;15.63;6.03;;;;;;;29.42;57.07;99979.67;1737383;82;21348;-76
2023/08/10 13:41:41;;;;;;;11.50;6.53;;;;;;;29.32;57.78;99988.89;1738802;82;21333;-76
2023/08/10 13:44:45;;;;;;;;;;;;;;;29.48;57.78;99992.52;1741444;82;21326;-76
2023/08/10 13:47:51;;;;;;;16.93;6.58;;;;;;;29.24;59.58;99977.75;1706908;84;20295;-76
2023/08/10 13:50:58;;;;;;;21.70;6.95;;;;;;;29.33;60.34;99973.66;1737787;82;21307;-76
2023/08/10 13:54:03;;;;;;;20.60;6.67;;;;;;;29.13;61.17;99986.12;1737542;82;21348;-76
2023/08/10 13:57:12;;;;;;;21.48;8.00;;;;;;;28.99;63.11;100005.20;1737384;82;21329;-77
2023/08/10 14:00:19;;;;;;;17.35;7.58;;;;;;;28.97;63.98;100019.30;1766488;81;21280;-76
2023/08/10 14:03:25;;;;;;;14.53;7.55;;;;;;;29.00;64.51;100020.94;1735729;82;21371;-77
2023/08/10 14:06:32;;;;;;;13.08;6.78;;;;;;;29.08;64.57;100031.22;1767737;81;21943;-76
2023/08/10 14:09:37;;;;;;;15.05;8.00;;;;;;;28.98;65.14;100011.11;1737086;82;21883;-76
2023/08/10 14:12:44;;;;;;;12.20;6.83;;;;;;;28.76;65.98;100019.59;1769202;81;21315;-76
2023/08/10 14:15:50;;;;;;;17.65;8.25;;;;;;;28.58;66.92;100037.30;1737189;82;21336;-77
2023/08/10 14:18:56;;;;;;;17.98;9.10;;;;;;;28.31;67.27;100044.09;1769474;81;21641;-76
2023/08/10 14:22:02;;;;;;;17.62;9.13;;;;;;;28.16;67.98;100047.37;1735723;82;21863;-76
2023/08/10 14:25:09;;;;;;;21.35;10.20;;;;;;;27.98;69.14;100048.14;1769328;81;21300;-76
2023/08/10 14:28:16;;;;;;;16.60;9.03;;;;;;;27.97;69.43;100020.60;1736676;82;21336;-75